createdAt,value
2022-12-25T00:00:32.506Z,98053.13
2022-12-25T00:03:22.962Z,98051.66
2022-12-25T00:05:54.696Z,98049.89
2022-12-25T00:08:24.990Z,98057.45
2022-12-25T00:11:02.581Z,98059.86
2022-12-25T00:13:34.362Z,98061.05
2022-12-25T00:16:10.573Z,98064.19
2022-12-25T00:18:42.317Z,98071.78
2022-12-25T00:21:15.444Z,98075.28
2022-12-25T00:23:47.426Z,98075.10
2022-12-25T00:26:20.141Z,98075.31
2022-12-25T00:28:54.716Z,98076.20
2022-12-25T00:31:27.383Z,98084.64
2022-12-25T00:33:59.116Z,98085.85
2022-12-25T00:36:29.238Z,98089.04
2022-12-25T00:39:00.885Z,98095.61
2022-12-25T00:41:49.845Z,98097.14
2022-12-25T00:44:21.526Z,98098.34
2022-12-25T00:46:51.713Z,98102.06
2022-12-25T00:49:24.936Z,98105.12
2022-12-25T00:51:56.704Z,98111.94
2022-12-25T00:54:28.411Z,98116.69
2022-12-25T00:57:00.096Z,98115.02
2022-12-25T00:59:35.056Z,98115.89
2022-12-25T01:02:25.400Z,98115.33
2022-12-25T01:04:57.985Z,98116.80
2022-12-25T01:07:29.848Z,98118.15
2022-12-25T01:10:18.981Z,98119.63
2022-12-25T01:12:52.282Z,98122.36
2022-12-25T01:15:24.039Z,98125.75
2022-12-25T01:17:55.762Z,98125.64
2022-12-25T01:20:27.430Z,98137.01
2022-12-25T01:22:57.541Z,98138.52
2022-12-25T01:25:29.219Z,98148.96
2022-12-25T01:27:59.395Z,98156.92
2022-12-25T01:30:31.694Z,98159.69
2022-12-25T01:33:03.486Z,98163.95
2022-12-25T01:35:33.622Z,98169.79
2022-12-25T01:38:05.347Z,98167.66
2022-12-25T01:40:36.066Z,98171.61
2022-12-25T01:43:18.561Z,98166.10
2022-12-25T01:45:52.574Z,98172.73
2022-12-25T01:48:28.595Z,98174.36
2022-12-25T01:51:03.317Z,98170.16
2022-12-25T01:53:35.396Z,98170.08
2022-12-25T01:56:10.466Z,98166.60
2022-12-25T01:58:42.954Z,98159.14
2022-12-25T02:01:14.703Z,98161.39
2022-12-25T02:03:46.926Z,98166.41
2022-12-25T02:06:18.553Z,98170.86
2022-12-25T02:08:48.781Z,98172.70
2022-12-25T02:11:34.417Z,98173.48
2022-12-25T02:14:06.114Z,98173.63
2022-12-25T02:16:57.414Z,98176.04
2022-12-25T02:19:53.491Z,98183.58
2022-12-25T02:22:37.180Z,98182.04
2022-12-25T02:25:22.569Z,98183.27
2022-12-25T02:28:08.922Z,98186.32
2022-12-25T02:30:45.551Z,98177.58
2022-12-25T02:33:40.074Z,98176.64
2022-12-25T02:36:19.638Z,98178.33
2022-12-25T02:39:14.248Z,98174.33
2022-12-25T02:41:49.944Z,98178.05
2022-12-25T02:44:41.860Z,98179.06
2022-12-25T02:47:45.876Z,98178.21
2022-12-25T02:50:36.889Z,98179.54
2022-12-25T02:53:29.903Z,98182.05
2022-12-25T02:56:19.677Z,98185.36
2022-12-25T02:59:09.727Z,98188.15
2022-12-25T03:02:00.936Z,98186.73
2022-12-25T03:04:51.510Z,98191.51
2022-12-25T03:07:26.710Z,98195.25
2022-12-25T03:10:19.984Z,98188.68
2022-12-25T03:12:54.595Z,98186.98
2022-12-25T03:15:44.164Z,98187.00
2022-12-25T03:18:19.128Z,98194.47
2022-12-25T03:21:08.763Z,98194.71
2022-12-25T03:24:01.125Z,98195.45
2022-12-25T03:26:51.912Z,98199.48
2022-12-25T03:29:41.715Z,98201.17
2022-12-25T03:32:26.340Z,98202.32
2022-12-25T03:35:25.362Z,98201.79
2022-12-25T03:38:39.737Z,98204.86
2022-12-25T03:41:50.754Z,98204.61
2022-12-25T03:44:44.591Z,98207.04
2022-12-25T03:47:38.828Z,98206.33
2022-12-25T03:50:35.050Z,98204.13
2022-12-25T03:53:29.225Z,98208.58
2022-12-25T03:56:19.020Z,98211.95
2022-12-25T03:59:17.803Z,98210.14
2022-12-25T04:02:16.140Z,98222.02
2022-12-25T04:05:05.367Z,98226.27
2022-12-25T04:07:54.269Z,98226.39
2022-12-25T04:10:44.200Z,98230.31
2022-12-25T04:13:33.931Z,98232.44
2022-12-25T04:16:23.752Z,98230.84
2022-12-25T04:19:12.963Z,98235.23
2022-12-25T04:22:01.982Z,98235.85
2022-12-25T04:24:51.275Z,98240.27
2022-12-25T04:27:41.128Z,98240.31
2022-12-25T04:30:31.457Z,98245.13
2022-12-25T04:33:20.578Z,98248.04
2022-12-25T04:36:15.279Z,98254.27
2022-12-25T04:38:46.935Z,98253.02
2022-12-25T04:41:18.668Z,98250.49
2022-12-25T04:43:48.776Z,98250.38
2022-12-25T04:46:20.429Z,98258.32
2022-12-25T04:48:50.639Z,98263.54
2022-12-25T04:51:24.612Z,98266.01
2022-12-25T04:53:56.989Z,98268.27
2022-12-25T04:56:28.644Z,98270.74
2022-12-25T04:58:58.796Z,98271.05
2022-12-25T05:01:30.556Z,98268.48
2022-12-25T05:04:02.281Z,98268.60
2022-12-25T05:06:32.450Z,98261.67
2022-12-25T05:09:04.230Z,98260.99
2022-12-25T05:11:35.862Z,98260.72
2022-12-25T05:14:06.051Z,98267.04
2022-12-25T05:16:38.234Z,98264.61
2022-12-25T05:19:09.920Z,98260.05
2022-12-25T05:21:41.776Z,98259.73
2022-12-25T05:24:11.925Z,98257.95
2022-12-25T05:26:45.482Z,98258.88
2022-12-25T05:29:17.910Z,98262.06
2022-12-25T05:31:48.069Z,98265.66
2022-12-25T05:34:19.695Z,98270.80
2022-12-25T05:36:49.836Z,98275.45
2022-12-25T05:39:21.695Z,98281.52
2022-12-25T05:41:53.308Z,98280.09
2022-12-25T05:44:23.642Z,98282.95
2022-12-25T05:46:55.304Z,98294.40
2022-12-25T05:49:27.092Z,98296.67
2022-12-25T05:51:58.809Z,98303.63
2022-12-25T05:54:28.933Z,98305.14
2022-12-25T05:57:00.664Z,98304.02
2022-12-25T05:59:33.679Z,98305.73
2022-12-25T06:02:05.352Z,98297.77
2022-12-25T06:04:35.488Z,98297.27
2022-12-25T06:07:07.195Z,98302.48
2022-12-25T06:09:37.269Z,98306.73
2022-12-25T06:12:09.663Z,98303.88
2022-12-25T06:14:41.324Z,98305.19
2022-12-25T06:17:11.587Z,98305.95
2022-12-25T06:19:44.492Z,98310.09
2022-12-25T06:22:16.154Z,98314.36
2022-12-25T06:24:47.917Z,98316.55
2022-12-25T06:27:18.035Z,98322.42
2022-12-25T06:29:49.659Z,98323.09
2022-12-25T06:32:19.872Z,98330.95
2022-12-25T06:34:51.643Z,98332.02
2022-12-25T06:37:23.275Z,98334.78
2022-12-25T06:39:53.419Z,98342.59
2022-12-25T06:42:24.996Z,98353.72
2022-12-25T06:44:55.135Z,98365.66
2022-12-25T06:47:26.769Z,98372.63
2022-12-25T06:49:56.930Z,98377.14
2022-12-25T06:52:28.661Z,98384.81
2022-12-25T06:55:00.533Z,98389.15
2022-12-25T06:57:32.471Z,98394.48
2022-12-25T07:00:04.810Z,98399.57
2022-12-25T07:02:38.587Z,98403.66
2022-12-25T07:05:11.218Z,98403.59
2022-12-25T07:07:42.807Z,98403.95
2022-12-25T07:10:14.790Z,98403.89
2022-12-25T07:12:46.456Z,98415.98
2022-12-25T07:15:16.559Z,98420.68
2022-12-25T07:17:48.136Z,98423.70
2022-12-25T07:20:18.257Z,98432.49
2022-12-25T07:22:49.921Z,98435.75
2022-12-25T07:25:20.065Z,98441.97
2022-12-25T07:27:51.686Z,98447.14
2022-12-25T07:30:21.833Z,98455.00
2022-12-25T07:32:53.444Z,98459.08
2022-12-25T07:35:23.550Z,98461.33
2022-12-25T07:37:55.755Z,98464.14
2022-12-25T07:40:27.393Z,98465.30
2022-12-25T07:42:57.519Z,98467.52
2022-12-25T07:45:29.291Z,98464.94
2022-12-25T07:48:05.236Z,98468.90
2022-12-25T07:50:38.001Z,98470.65
2022-12-25T07:53:09.718Z,98468.58
2022-12-25T07:55:41.405Z,98466.70
2022-12-25T07:58:11.533Z,98465.88
2022-12-25T08:00:43.148Z,98465.26
2022-12-25T08:03:15.351Z,98459.95
2022-12-25T08:05:47.663Z,98457.58
2022-12-25T08:08:19.303Z,98456.54
2022-12-25T08:10:49.439Z,98457.89
2022-12-25T08:13:21.125Z,98466.19
2022-12-25T08:15:51.281Z,98462.32
2022-12-25T08:18:29.397Z,98464.36
2022-12-25T08:21:05.689Z,98463.66
2022-12-25T08:23:39.736Z,98466.32
2022-12-25T08:26:14.848Z,98467.55
2022-12-25T08:28:46.985Z,98465.36
2022-12-25T08:31:20.280Z,98463.32
2022-12-25T08:33:54.016Z,98461.61
2022-12-25T08:36:26.182Z,98456.55
2022-12-25T08:39:02.548Z,98453.81
2022-12-25T08:41:36.426Z,98455.35
2022-12-25T08:44:08.752Z,98452.88
2022-12-25T08:46:40.738Z,98454.80
2022-12-25T08:49:12.496Z,98455.58
2022-12-25T08:51:42.634Z,98456.08
2022-12-25T08:54:14.303Z,98460.58
2022-12-25T08:56:44.412Z,98466.88
2022-12-25T08:59:16.031Z,98471.87
2022-12-25T09:01:46.256Z,98472.75
2022-12-25T09:04:18.030Z,98483.42
2022-12-25T09:06:50.292Z,98492.88
2022-12-25T09:09:22.050Z,98498.33
2022-12-25T09:11:52.149Z,98504.44
2022-12-25T09:14:23.824Z,98507.52
2022-12-25T09:16:53.932Z,98503.95
2022-12-25T09:19:25.589Z,98499.41
2022-12-25T09:21:55.742Z,98493.45
2022-12-25T09:24:27.424Z,98494.96
2022-12-25T09:26:59.016Z,98498.56
2022-12-25T09:29:29.140Z,98503.54
2022-12-25T09:32:00.810Z,98505.06
2022-12-25T09:34:32.621Z,98508.20
2022-12-25T09:37:04.420Z,98509.83
2022-12-25T09:39:39.417Z,98507.20
2022-12-25T09:42:20.173Z,98508.98
2022-12-25T09:44:56.461Z,98511.41
2022-12-25T09:47:30.134Z,98515.38
2022-12-25T09:50:12.293Z,98517.02
2022-12-25T09:52:49.654Z,98514.75
2022-12-25T09:55:24.172Z,98518.31
2022-12-25T09:57:58.355Z,98516.88
2022-12-25T10:00:41.761Z,98524.27
2022-12-25T10:03:35.883Z,98516.86
2022-12-25T10:06:19.002Z,98520.58
2022-12-25T10:09:18.429Z,98518.80
2022-12-25T10:11:59.954Z,98512.79
2022-12-25T10:14:36.049Z,98512.73
2022-12-25T10:17:25.323Z,98510.98
2022-12-25T10:20:05.667Z,98500.62
2022-12-25T10:22:42.579Z,98500.36
2022-12-25T10:25:19.460Z,98498.84
2022-12-25T10:27:55.729Z,98495.95
2022-12-25T10:30:29.845Z,98489.25
2022-12-25T10:33:01.560Z,98481.96
2022-12-25T10:35:33.462Z,98483.99
2022-12-25T10:38:12.172Z,98482.58
2022-12-25T10:41:01.228Z,98480.94
2022-12-25T10:43:38.924Z,98482.48
2022-12-25T10:46:15.408Z,98482.66
2022-12-25T10:48:51.335Z,98475.06
2022-12-25T10:51:35.818Z,98470.73
2022-12-25T10:54:23.427Z,98467.13
2022-12-25T10:57:00.766Z,98464.69
2022-12-25T10:59:36.902Z,98462.16
2022-12-25T11:02:19.684Z,98462.08
2022-12-25T11:04:52.627Z,98458.81
2022-12-25T11:07:27.130Z,98456.95
2022-12-25T11:10:05.337Z,98454.11
2022-12-25T11:12:43.377Z,98449.10
2022-12-25T11:15:34.849Z,98446.79
2022-12-25T11:18:18.609Z,98445.77
2022-12-25T11:20:55.488Z,98442.48
2022-12-25T11:23:29.935Z,98448.77
2022-12-25T11:26:03.640Z,98447.53
2022-12-25T11:28:37.926Z,98441.74
2022-12-25T11:31:13.464Z,98441.82
2022-12-25T11:33:51.684Z,98440.88
2022-12-25T11:36:41.151Z,98442.06
2022-12-25T11:39:21.258Z,98447.68
2022-12-25T11:41:56.207Z,98448.16
2022-12-25T11:44:47.029Z,98447.95
2022-12-25T11:47:26.689Z,98445.91
2022-12-25T11:50:05.200Z,98451.90
2022-12-25T11:52:39.831Z,98450.11
2022-12-25T11:55:24.195Z,98447.12
2022-12-25T11:58:02.411Z,98446.66
2022-12-25T12:00:37.726Z,98447.77
2022-12-25T12:03:19.510Z,98446.66
2022-12-25T12:05:59.063Z,98449.77
2022-12-25T12:08:31.491Z,98448.39
2022-12-25T12:11:19.022Z,98448.16
2022-12-25T12:14:16.050Z,98441.77
2022-12-25T12:16:48.294Z,98439.56
2022-12-25T12:19:28.704Z,98434.13
2022-12-25T12:22:02.835Z,98435.05
2022-12-25T12:24:40.006Z,98435.48
2022-12-25T12:27:28.964Z,98433.02
2022-12-25T12:30:02.062Z,98432.38
2022-12-25T12:32:41.885Z,98426.91
2022-12-25T12:35:19.170Z,98427.86
2022-12-25T12:37:54.581Z,98427.09
2022-12-25T12:40:34.758Z,98429.65
2022-12-25T12:43:09.271Z,98432.72
2022-12-25T12:45:40.979Z,98436.30
2022-12-25T12:48:25.993Z,98430.99
2022-12-25T12:51:07.083Z,98429.60
2022-12-25T12:53:40.130Z,98423.85
2022-12-25T12:56:18.042Z,98422.15
2022-12-25T12:58:51.295Z,98421.95
2022-12-25T13:01:39.582Z,98428.09
2022-12-25T13:04:40.527Z,98431.40
2022-12-25T13:07:32.183Z,98434.29
2022-12-25T13:10:14.680Z,98429.02
2022-12-25T13:12:47.015Z,98432.79
2022-12-25T13:15:19.760Z,98436.00
2022-12-25T13:17:51.689Z,98438.20
2022-12-25T13:20:30.763Z,98437.77
2022-12-25T13:23:02.496Z,98442.31
2022-12-25T13:25:34.131Z,98435.24
2022-12-25T13:28:04.880Z,98438.70
2022-12-25T13:30:36.665Z,98437.69
2022-12-25T13:33:17.373Z,98431.98
2022-12-25T13:35:49.553Z,98428.64
2022-12-25T13:38:23.254Z,98428.38
2022-12-25T13:41:14.841Z,98426.32
2022-12-25T13:43:49.829Z,98424.91
2022-12-25T13:46:27.944Z,98425.39
2022-12-25T13:49:02.368Z,98422.08
2022-12-25T13:51:35.024Z,98432.70
2022-12-25T13:54:07.982Z,98438.44
2022-12-25T13:56:46.344Z,98427.81
2022-12-25T13:59:20.447Z,98417.84
2022-12-25T14:01:54.257Z,98415.16
2022-12-25T14:04:26.989Z,98417.61
2022-12-25T14:07:09.511Z,98420.23
2022-12-25T14:09:41.713Z,98414.79
2022-12-25T14:12:19.114Z,98416.91
2022-12-25T14:14:53.362Z,98426.27
2022-12-25T14:17:25.546Z,98427.09
2022-12-25T14:20:07.824Z,98424.66
2022-12-25T14:22:41.363Z,98426.34
2022-12-25T14:25:18.193Z,98426.43
2022-12-25T14:27:53.603Z,98426.41
2022-12-25T14:30:28.609Z,98424.21
2022-12-25T14:33:02.594Z,98420.27
2022-12-25T14:35:34.432Z,98423.05
2022-12-25T14:38:16.787Z,98428.95
2022-12-25T14:40:48.441Z,98428.05
2022-12-25T14:43:24.603Z,98426.14
2022-12-25T14:45:59.733Z,98424.14
2022-12-25T14:48:40.775Z,98428.02
2022-12-25T14:51:21.818Z,98418.78
2022-12-25T14:53:59.936Z,98406.05
2022-12-25T14:56:48.970Z,98406.04
2022-12-25T14:59:29.885Z,98406.30
2022-12-25T15:02:22.530Z,98409.21
2022-12-25T15:04:58.561Z,98419.21
2022-12-25T15:07:45.821Z,98432.17
2022-12-25T15:13:21.398Z,98435.13
2022-12-25T15:16:06.809Z,98434.77
2022-12-25T15:18:41.384Z,98438.90
2022-12-25T15:21:27.583Z,98449.58
2022-12-25T15:24:00.728Z,98449.85
2022-12-25T15:26:37.551Z,98446.24
2022-12-25T15:29:27.589Z,98448.84
2022-12-25T15:32:20.591Z,98451.34
2022-12-25T15:34:53.860Z,98452.56
2022-12-25T15:37:25.587Z,98450.30
2022-12-25T15:39:57.680Z,98450.30
2022-12-25T15:42:56.436Z,98439.98
2022-12-25T15:45:40.103Z,98427.05
2022-12-25T15:48:26.282Z,98423.85
2022-12-25T15:51:20.203Z,98426.16
2022-12-25T15:54:01.721Z,98419.00
2022-12-25T15:56:48.942Z,98403.81
2022-12-25T15:59:34.404Z,98403.95
2022-12-25T16:02:19.795Z,98407.35
2022-12-25T16:05:29.955Z,98410.08
2022-12-25T16:08:18.582Z,98408.34
2022-12-25T16:11:04.668Z,98403.67
2022-12-25T16:13:41.826Z,98397.83
2022-12-25T16:16:22.664Z,98393.90
2022-12-25T16:18:56.874Z,98396.60
2022-12-25T16:21:27.291Z,98397.95
2022-12-25T16:23:59.587Z,98400.59
2022-12-25T16:26:33.229Z,98401.30
2022-12-25T16:29:07.397Z,98399.57
2022-12-25T16:31:40.488Z,98389.11
2022-12-25T16:34:12.638Z,98389.11
2022-12-25T16:36:44.686Z,98381.14
2022-12-25T16:39:16.495Z,98378.41
2022-12-25T16:41:46.625Z,98375.21
2022-12-25T16:44:18.368Z,98378.14
2022-12-25T16:46:48.602Z,98376.21
2022-12-25T16:49:20.298Z,98381.23
2022-12-25T16:51:50.471Z,98378.50
2022-12-25T16:54:22.150Z,98379.21
2022-12-25T16:56:52.552Z,98375.91
2022-12-25T16:59:24.208Z,98374.55
2022-12-25T17:01:57.369Z,98374.20
2022-12-25T17:04:29.641Z,98378.33
2022-12-25T17:07:01.357Z,98384.23
2022-12-25T17:09:31.636Z,98385.20
2022-12-25T17:12:03.319Z,98389.55
2022-12-25T17:14:34.133Z,98385.80
2022-12-25T17:17:05.944Z,98380.21
2022-12-25T17:19:40.151Z,98376.16
2022-12-25T17:22:11.926Z,98358.78
2022-12-25T17:24:43.729Z,98354.73
2022-12-25T17:27:15.448Z,98355.70
2022-12-25T17:29:48.543Z,98348.42
2022-12-25T17:32:20.269Z,98343.46
2022-12-25T17:34:50.424Z,98346.80
2022-12-25T17:37:22.062Z,98344.80
2022-12-25T17:39:53.883Z,98342.11
2022-12-25T17:42:24.046Z,98335.54
2022-12-25T17:44:57.360Z,98326.98
2022-12-25T17:47:30.273Z,98325.66
2022-12-25T17:50:01.996Z,98321.75
2022-12-25T17:52:34.536Z,98315.14
2022-12-25T17:55:08.530Z,98312.65
2022-12-25T17:57:41.363Z,98311.35
2022-12-25T18:00:16.435Z,98313.50
2022-12-25T18:02:48.237Z,98317.20
2022-12-25T18:05:20.228Z,98324.98
2022-12-25T18:07:51.877Z,98323.38
2022-12-25T18:10:22.054Z,98327.92
2022-12-25T18:12:53.691Z,98336.77
2022-12-25T18:15:23.835Z,98339.37
2022-12-25T18:17:55.738Z,98338.40
2022-12-25T18:20:31.804Z,98334.70
2022-12-25T18:23:06.210Z,98330.08
2022-12-25T18:25:40.432Z,98325.15
2022-12-25T18:28:13.158Z,98324.33
2022-12-25T18:30:46.404Z,98320.78
2022-12-25T18:33:18.102Z,98321.98
2022-12-25T18:35:50.809Z,98326.80
2022-12-25T18:38:22.498Z,98327.69
2022-12-25T18:40:53.084Z,98330.73
2022-12-25T18:43:53.737Z,98332.21
2022-12-25T18:46:15.605Z,98340.64
2022-12-25T18:48:47.626Z,98347.81
2022-12-25T18:51:19.451Z,98347.07
2022-12-25T18:53:51.291Z,98334.39
2022-12-25T18:56:24.556Z,98329.48
2022-12-25T18:58:54.728Z,98326.27
2022-12-25T19:01:26.948Z,98321.02
2022-12-25T19:04:04.375Z,98318.36
2022-12-25T19:06:37.068Z,98319.92
2022-12-25T19:09:09.732Z,98315.08
2022-12-25T19:11:46.332Z,98310.77
2022-12-25T19:14:18.699Z,98306.45
2022-12-25T19:16:49.051Z,98307.27
2022-12-25T19:19:21.252Z,98307.47
2022-12-25T19:21:55.791Z,98298.36
2022-12-25T19:24:27.867Z,98288.38
2022-12-25T19:26:59.654Z,98278.20
2022-12-25T19:29:31.548Z,98280.75
2022-12-25T19:32:03.370Z,98277.23
2022-12-25T19:34:37.331Z,98271.20
2022-12-25T19:37:09.269Z,98270.54
2022-12-25T19:39:46.919Z,98265.24
2022-12-25T19:42:19.415Z,98265.80
2022-12-25T19:44:51.487Z,98260.88
2022-12-25T19:47:28.741Z,98256.30
2022-12-25T19:50:03.336Z,98252.75
2022-12-25T19:52:36.278Z,98249.83
2022-12-25T19:55:11.036Z,98249.07
2022-12-25T19:57:44.246Z,98236.98
2022-12-25T20:00:19.126Z,98235.42
2022-12-25T20:02:53.147Z,98239.29
2022-12-25T20:05:25.714Z,98238.66
2022-12-25T20:07:59.114Z,98235.55
2022-12-25T20:10:33.077Z,98234.70
2022-12-25T20:13:06.348Z,98237.56
2022-12-25T20:15:40.640Z,98234.29
2022-12-25T20:18:13.593Z,98232.80
2022-12-25T20:20:49.277Z,98236.25
2022-12-25T20:23:24.437Z,98231.96
2022-12-25T20:25:59.695Z,98234.02
2022-12-25T20:28:34.559Z,98233.33
2022-12-25T20:31:10.435Z,98234.00
2022-12-25T20:33:42.748Z,98233.68
2022-12-25T20:36:15.074Z,98222.55
2022-12-25T20:38:46.807Z,98210.48
2022-12-25T20:41:26.872Z,98208.80
2022-12-25T20:44:01.817Z,98208.88
2022-12-25T20:46:34.043Z,98204.40
2022-12-25T20:49:06.518Z,98208.44
2022-12-25T20:51:40.734Z,98200.95
2022-12-25T20:54:14.862Z,98192.75
2022-12-25T20:56:46.668Z,98186.98
2022-12-25T20:59:18.468Z,98185.86
2022-12-25T21:01:50.708Z,98180.81
2022-12-25T21:04:22.502Z,98180.09
2022-12-25T21:06:53.749Z,98176.90
2022-12-25T21:09:25.790Z,98174.11
2022-12-25T21:11:57.541Z,98172.48
2022-12-25T21:14:30.358Z,98173.08
2022-12-25T21:17:02.078Z,98171.54
2022-12-25T21:19:34.118Z,98168.70
2022-12-25T21:22:05.780Z,98165.90
2022-12-25T21:24:36.353Z,98162.77
2022-12-25T21:27:08.139Z,98155.48
2022-12-25T21:29:40.393Z,98145.52
2022-12-25T21:32:29.508Z,98146.98
2022-12-25T21:35:01.194Z,98153.81
2022-12-25T21:37:33.669Z,98150.80
2022-12-25T21:40:06.785Z,98142.65
2022-12-25T21:42:40.712Z,98144.38
2022-12-25T21:45:11.171Z,98145.79
2022-12-25T21:48:02.447Z,98143.70
2022-12-25T21:50:52.358Z,98144.75
2022-12-25T21:53:25.161Z,98145.63
2022-12-25T21:56:02.233Z,98141.80
2022-12-25T21:58:34.023Z,98132.87
2022-12-25T22:01:06.503Z,98126.73
2022-12-25T22:03:38.395Z,98120.29
2022-12-25T22:06:27.497Z,98108.08
2022-12-25T22:08:59.279Z,98104.77
2022-12-25T22:11:48.612Z,98109.52
2022-12-25T22:14:51.145Z,98111.92
2022-12-25T22:17:43.473Z,98119.45
2022-12-25T22:20:17.532Z,98123.02
2022-12-25T22:22:49.784Z,98118.45
2022-12-25T22:25:22.005Z,98113.17
2022-12-25T22:27:54.254Z,98107.94
2022-12-25T22:30:27.709Z,98097.10
2022-12-25T22:32:59.683Z,98091.70
2022-12-25T22:35:31.374Z,98080.45
2022-12-25T22:38:01.514Z,98069.98
2022-12-25T22:40:33.432Z,98072.93
2022-12-25T22:43:05.112Z,98073.55
2022-12-25T22:45:35.234Z,98075.71
2022-12-25T22:48:07.568Z,98071.39
2022-12-25T22:50:39.278Z,98073.69
2022-12-25T22:53:09.467Z,98085.17
2022-12-25T22:55:45.895Z,98093.73
2022-12-25T22:58:17.849Z,98089.39
2022-12-25T23:00:49.812Z,98076.94
2022-12-25T23:03:20.074Z,98070.90
2022-12-25T23:05:57.097Z,98067.53
2022-12-25T23:08:29.127Z,98066.05
2022-12-25T23:11:06.370Z,98064.98
2022-12-25T23:14:10.461Z,98070.39
2022-12-25T23:16:42.157Z,98069.60
2022-12-25T23:19:33.965Z,98069.52
2022-12-25T23:22:22.938Z,98066.53
2022-12-25T23:25:12.183Z,98058.58
2022-12-25T23:27:44.328Z,98059.39
2022-12-25T23:30:17.744Z,98060.41
2022-12-25T23:32:49.625Z,98058.08
2022-12-25T23:35:21.583Z,98058.63
2022-12-25T23:37:55.296Z,98057.98
2022-12-25T23:40:26.942Z,98052.09
2022-12-25T23:42:57.056Z,98041.77
2022-12-25T23:45:28.733Z,98037.34
2022-12-25T23:47:58.905Z,98031.00
2022-12-25T23:50:30.645Z,98026.48
2022-12-25T23:53:02.305Z,98019.18
2022-12-25T23:55:35.458Z,98005.77
2022-12-25T23:58:07.398Z,97997.73
